Time;durP1;ratioP1;P1;durP2;ratioP2;P2;SDS_P1;SDS_P2;PMS_P1;PMS_P2;Temp;Humidity;BMP_temperature;BMP_pressure;BME280_temperature;BME280_humidity;BME280_pressure;Samples;Min_cycle;Max_cycle;Signal;HPM_P1;HPM_P2
2024/01/31 00:04:21;;;;;;;9.80;5.10;;;9.00;93.80;;;;;;10522822;28;20827;-64
2024/01/31 00:09:25;;;;;;;9.85;5.47;;;9.00;93.90;;;;;;10517121;28;20252;-64
2024/01/31 00:14:29;;;;;;;10.20;5.50;;;9.00;93.90;;;;;;10522956;28;20702;-64
2024/01/31 00:19:33;;;;;;;11.25;5.28;;;9.00;93.90;;;;;;10517621;28;20259;-64
2024/01/31 00:24:37;;;;;;;9.63;5.23;;;9.00;93.90;;;;;;10518692;28;20219;-64
2024/01/31 00:29:42;;;;;;;10.00;5.80;;;9.00;94.40;;;;;;10523425;28;20310;-64
2024/01/31 00:34:45;;;;;;;10.40;6.13;;;9.00;94.30;;;;;;10512802;28;20226;-63
2024/01/31 00:39:49;;;;;;;11.27;5.47;;;9.10;94.30;;;;;;10511449;28;20268;-64
2024/01/31 00:44:54;;;;;;;11.37;5.47;;;9.00;94.00;;;;;;10523583;28;20250;-63
2024/01/31 00:49:58;;;;;;;12.27;5.80;;;9.00;94.20;;;;;;10516192;28;20272;-65
2024/01/31 00:55:02;;;;;;;12.13;6.17;;;9.00;94.20;;;;;;10513889;28;20290;-64
2024/01/31 01:00:09;;;;;;;11.48;5.85;;;9.00;94.30;;;;;;10519661;28;20263;-65
2024/01/31 01:05:12;;;;;;;13.38;6.30;;;9.00;94.10;;;;;;10511422;28;20254;-64
2024/01/31 01:10:17;;;;;;;13.10;6.57;;;9.00;94.10;;;;;;10515889;28;20725;-65
2024/01/31 01:15:22;;;;;;;10.27;6.47;;;9.10;94.20;;;;;;10522073;28;20267;-63
2024/01/31 01:20:25;;;;;;;14.33;7.00;;;9.10;94.10;;;;;;10515773;28;20216;-64
2024/01/31 01:25:29;;;;;;;15.43;6.30;;;9.10;94.20;;;;;;10515679;28;20770;-64
2024/01/31 01:30:34;;;;;;;13.90;7.43;;;9.00;94.10;;;;;;10521003;28;20307;-65
2024/01/31 01:35:37;;;;;;;11.82;6.47;;;9.10;94.20;;;;;;10521356;28;20236;-64
2024/01/31 01:40:44;;;;;;;15.40;7.20;;;9.00;94.30;;;;;;10517464;28;20190;-65
2024/01/31 01:45:49;;;;;;;13.53;7.07;;;9.00;94.10;;;;;;10510513;28;20685;-68
2024/01/31 01:50:53;;;;;;;12.70;7.30;;;9.00;94.20;;;;;;10522056;28;20276;-66
2024/01/31 01:55:56;;;;;;;13.67;8.17;;;9.00;94.20;;;;;;10511821;28;20275;-64
2024/01/31 02:01:02;;;;;;;12.55;7.95;;;9.00;94.10;;;;;;10509868;28;20222;-66
2024/01/31 02:06:05;;;;;;;14.23;7.87;;;9.00;94.30;;;;;;10512102;28;20283;-66
2024/01/31 02:11:09;;;;;;;12.90;7.70;;;8.90;94.10;;;;;;10513671;28;20218;-66
2024/01/31 02:16:14;;;;;;;14.27;7.77;;;8.90;94.20;;;;;;10515533;28;20268;-66
2024/01/31 02:21:18;;;;;;;15.17;7.60;;;8.90;94.20;;;;;;10509059;28;20198;-64
2024/01/31 02:26:23;;;;;;;14.83;7.57;;;8.80;94.20;;;;;;10516730;28;20214;-65
2024/01/31 02:31:27;;;;;;;11.17;7.43;;;8.80;94.30;;;;;;10527473;28;20221;-63
2024/01/31 02:36:30;;;;;;;12.90;7.43;;;8.90;94.30;;;;;;10521903;28;20343;-64
2024/01/31 02:41:35;;;;;;;13.90;8.30;;;8.90;94.30;;;;;;10517034;28;20584;-62
2024/01/31 02:46:39;;;;;;;17.17;8.63;;;8.90;94.20;;;;;;10523403;28;20248;-65
2024/01/31 02:51:42;;;;;;;12.67;7.57;;;8.90;94.20;;;;;;10529080;28;20257;-66
2024/01/31 02:56:47;;;;;;;12.27;8.20;;;8.90;94.30;;;;;;10519363;28;20323;-61
2024/01/31 03:01:51;;;;;;;13.70;7.33;;;8.90;94.30;;;;;;10523697;28;20661;-67
2024/01/31 03:06:54;;;;;;;9.93;6.07;;;8.90;94.30;;;;;;10519770;28;20226;-64
2024/01/31 03:11:59;;;;;;;9.93;5.87;;;8.80;94.20;;;;;;10511818;28;20296;-61
2024/01/31 03:17:03;;;;;;;10.47;4.67;;;8.80;94.00;;;;;;10526544;28;20202;-65
2024/01/31 03:22:08;;;;;;;6.10;3.60;;;8.80;93.90;;;;;;10516336;28;20610;-62
2024/01/31 03:27:13;;;;;;;5.67;2.67;;;8.80;93.90;;;;;;10525651;28;20198;-66
2024/01/31 03:32:19;;;;;;;5.53;2.30;;;8.80;93.80;;;;;;10521238;28;20214;-66
2024/01/31 03:37:23;;;;;;;6.73;1.90;;;8.70;93.60;;;;;;10514920;28;20210;-62
2024/01/31 03:42:28;;;;;;;4.07;2.20;;;8.70;93.60;;;;;;10519310;28;20277;-65
2024/01/31 03:47:34;;;;;;;2.57;2.10;;;8.60;93.50;;;;;;10525318;28;20210;-64
2024/01/31 03:52:37;;;;;;;4.53;2.10;;;8.60;93.50;;;;;;10523414;28;20284;-67
2024/01/31 03:57:42;;;;;;;4.10;2.10;;;8.60;93.50;;;;;;10517710;28;20198;-63
2024/01/31 04:02:46;;;;;;;5.32;2.10;;;8.70;93.50;;;;;;10517079;28;20264;-68
2024/01/31 04:07:50;;;;;;;2.50;1.80;;;8.70;93.50;;;;;;10524338;28;20263;-65
2024/01/31 04:12:55;;;;;;;5.50;1.90;;;8.60;93.50;;;;;;10518206;28;20223;-63
2024/01/31 04:17:59;;;;;;;5.33;2.20;;;8.60;93.40;;;;;;10513930;28;20207;-66
2024/01/31 04:23:03;;;;;;;3.07;1.60;;;8.60;93.40;;;;;;10520156;28;20210;-62
2024/01/31 04:28:08;;;;;;;4.33;2.00;;;8.60;93.40;;;;;;10523251;28;20194;-63
2024/01/31 04:33:12;;;;;;;3.40;1.93;;;8.60;93.40;;;;;;10518336;28;20253;-62
2024/01/31 04:38:15;;;;;;;5.17;1.77;;;8.60;93.30;;;;;;10520848;28;20206;-64
2024/01/31 04:43:20;;;;;;;6.17;2.07;;;8.60;93.30;;;;;;10514442;28;20254;-65
2024/01/31 04:48:24;;;;;;;3.83;2.23;;;8.60;93.40;;;;;;10518710;28;20249;-64
2024/01/31 04:53:28;;;;;;;4.23;2.10;;;8.60;93.40;;;;;;10518616;28;20778;-63
2024/01/31 04:58:33;;;;;;;5.40;2.70;;;8.60;93.40;;;;;;10512761;28;20267;-64
2024/01/31 05:03:36;;;;;;;4.43;2.33;;;8.60;93.30;;;;;;10513759;28;20829;-63
2024/01/31 05:08:40;;;;;;;3.07;1.90;;;8.60;93.30;;;;;;10514637;28;20194;-63
2024/01/31 05:13:52;;;;;;;3.63;2.20;;;8.60;93.20;;;;;;10511492;28;20218;-64
2024/01/31 05:18:56;;;;;;;5.20;2.27;;;8.60;93.20;;;;;;10514191;28;20199;-64
2024/01/31 05:23:59;;;;;;;3.97;2.20;;;8.50;93.20;;;;;;10521715;28;20757;-65
2024/01/31 05:29:04;;;;;;;3.50;2.47;;;8.50;93.20;;;;;;10521148;28;20245;-64
2024/01/31 05:34:08;;;;;;;3.43;2.70;;;8.50;93.30;;;;;;10512670;28;20350;-63
2024/01/31 05:39:12;;;;;;;3.27;2.50;;;8.50;93.30;;;;;;10515629;28;20195;-63
2024/01/31 05:44:17;;;;;;;4.47;2.20;;;8.50;93.30;;;;;;10512443;28;20697;-65
2024/01/31 05:49:20;;;;;;;5.63;2.37;;;8.50;93.30;;;;;;10515250;28;20218;-63
2024/01/31 05:54:24;;;;;;;11.80;7.67;;;8.40;93.30;;;;;;10520191;28;20257;-63
2024/01/31 05:59:29;;;;;;;6.67;3.70;;;8.40;93.30;;;;;;10511919;28;20251;-63
2024/01/31 06:04:32;;;;;;;30.90;18.40;;;8.40;93.40;;;;;;10522803;28;20234;-65
2024/01/31 06:09:36;;;;;;;12.43;6.70;;;8.40;93.40;;;;;;10516211;28;20370;-65
2024/01/31 06:14:41;;;;;;;7.07;5.17;;;8.40;93.40;;;;;;10529047;28;20279;-61
2024/01/31 06:19:45;;;;;;;7.47;6.63;;;8.40;93.50;;;;;;10520113;28;20224;-65
2024/01/31 06:24:49;;;;;;;7.03;5.30;;;8.40;93.80;;;;;;10521400;28;20268;-61
2024/01/31 06:29:54;;;;;;;5.47;3.77;;;8.40;93.40;;;;;;10526493;28;20255;-64
2024/01/31 06:34:57;;;;;;;7.17;4.00;;;8.40;93.50;;;;;;10525537;28;20226;-66
2024/01/31 06:40:01;;;;;;;7.67;3.90;;;8.40;93.50;;;;;;10492304;28;20191;-62
2024/01/31 06:45:07;;;;;;;5.67;3.63;;;8.40;93.50;;;;;;10522417;28;20264;-63
2024/01/31 06:50:12;;;;;;;5.80;3.60;;;8.40;93.40;;;;;;10519772;28;20275;-65
2024/01/31 06:55:16;;;;;;;6.07;4.20;;;8.40;93.50;;;;;;10522993;28;20732;-64
2024/01/31 07:00:22;;;;;;;6.20;3.30;;;8.40;93.50;;;;;;10502105;28;20217;-66
2024/01/31 07:05:25;;;;;;;5.50;3.50;;;8.40;93.90;;;;;;10520405;28;20279;-66
2024/01/31 07:10:29;;;;;;;7.67;3.60;;;8.30;93.50;;;;;;10515422;28;20319;-67
2024/01/31 07:15:34;;;;;;;4.57;3.33;;;8.30;93.30;;;;;;10530835;28;20695;-67
2024/01/31 07:20:37;;;;;;;6.83;3.70;;;8.40;93.30;;;;;;10530588;28;20650;-67
2024/01/31 07:25:41;;;;;;;5.10;3.93;;;8.40;93.40;;;;;;10523410;28;20320;-67
2024/01/31 07:30:46;;;;;;;10.37;4.50;;;8.40;93.30;;;;;;10532413;28;20281;-63
2024/01/31 07:35:49;;;;;;;16.07;5.67;;;8.40;93.20;;;;;;10529193;28;20283;-63
2024/01/31 07:40:53;;;;;;;12.20;4.80;;;8.40;93.20;;;;;;10530940;28;20195;-63
2024/01/31 07:45:58;;;;;;;15.23;5.97;;;8.40;93.30;;;;;;10527928;28;20790;-63
2024/01/31 07:51:03;;;;;;;10.37;5.57;;;8.40;93.60;;;;;;10525967;28;20214;-63
2024/01/31 07:56:07;;;;;;;12.07;5.50;;;8.40;93.30;;;;;;10530555;28;20244;-62
2024/01/31 08:01:12;;;;;;;13.20;6.70;;;8.40;93.20;;;;;;10529458;28;20197;-63
2024/01/31 08:06:18;;;;;;;11.37;7.60;;;8.40;93.20;;;;;;10526799;28;20286;-62
2024/01/31 08:11:22;;;;;;;11.67;7.67;;;8.40;93.20;;;;;;10522439;28;21780;-62
2024/01/31 08:16:27;;;;;;;11.33;8.03;;;8.40;93.30;;;;;;10522154;28;20222;-63
2024/01/31 08:21:32;;;;;;;15.87;8.97;;;8.50;93.30;;;;;;10527488;28;20843;-62
2024/01/31 08:26:35;;;;;;;13.97;9.30;;;8.50;93.30;;;;;;10525481;28;20279;-63
2024/01/31 08:31:40;;;;;;;30.20;14.73;;;8.50;93.40;;;;;;10516093;28;20218;-62
2024/01/31 08:36:44;;;;;;;14.77;9.87;;;8.50;93.40;;;;;;10520803;28;20275;-63
2024/01/31 08:41:48;;;;;;;15.57;10.50;;;8.50;93.30;;;;;;10529532;28;20220;-63
2024/01/31 08:46:53;;;;;;;18.83;12.00;;;8.50;93.30;;;;;;10527381;28;20705;-62
2024/01/31 08:52:17;;;;;;;17.50;10.53;;;8.50;93.30;;;;;;10521362;28;20275;-63
2024/01/31 08:57:20;;;;;;;15.83;10.50;;;8.60;93.50;;;;;;10526207;28;20203;-63
2024/01/31 09:02:25;;;;;;;17.43;11.13;;;8.60;93.40;;;;;;10530789;28;20264;-63
2024/01/31 09:07:29;;;;;;;17.63;11.60;;;8.60;93.40;;;;;;10525892;28;20846;-63
2024/01/31 09:12:33;;;;;;;18.90;12.13;;;8.60;93.30;;;;;;10520307;28;20698;-63
2024/01/31 09:17:37;;;;;;;14.47;10.50;;;8.60;93.40;;;;;;10530008;28;20563;-63
2024/01/31 09:22:41;;;;;;;16.27;11.67;;;8.70;93.30;;;;;;10529678;28;20214;-63
2024/01/31 09:27:45;;;;;;;19.10;11.43;;;8.70;93.30;;;;;;10529588;28;20198;-63
2024/01/31 09:32:50;;;;;;;15.33;10.10;;;8.70;93.30;;;;;;10523745;28;20222;-63
2024/01/31 09:37:53;;;;;;;14.60;10.43;;;8.70;93.40;;;;;;10527626;28;20240;-64
2024/01/31 09:42:57;;;;;;;14.17;10.33;;;8.80;93.30;;;;;;10526575;28;20342;-63
2024/01/31 09:48:02;;;;;;;17.43;10.93;;;8.80;93.30;;;;;;10527365;28;20202;-62
2024/01/31 09:53:07;;;;;;;17.50;9.83;;;8.80;93.30;;;;;;10522713;28;20198;-62
2024/01/31 09:58:11;;;;;;;15.23;9.37;;;8.90;93.30;;;;;;10525995;28;20251;-61
2024/01/31 10:03:15;;;;;;;13.37;8.77;;;8.90;93.20;;;;;;10526908;28;20271;-62
2024/01/31 10:08:19;;;;;;;14.27;9.37;;;8.90;93.10;;;;;;10528130;28;20206;-64
2024/01/31 10:13:23;;;;;;;11.27;9.00;;;9.00;93.50;;;;;;10531804;28;20222;-63
2024/01/31 10:18:29;;;;;;;13.53;8.93;;;9.00;93.10;;;;;;10527779;28;20263;-64
2024/01/31 10:23:33;;;;;;;12.93;8.40;;;9.10;93.30;;;;;;10518147;28;21049;-62
2024/01/31 10:28:37;;;;;;;9.43;7.07;;;9.10;93.20;;;;;;10534108;28;20202;-63
2024/01/31 10:33:50;;;;;;;12.67;8.33;;;9.10;93.00;;;;;;10533688;28;20275;-62
2024/01/31 10:38:54;;;;;;;11.70;7.90;;;9.20;93.00;;;;;;10530061;28;20206;-64
2024/01/31 10:44:01;;;;;;;11.23;7.47;;;9.20;93.00;;;;;;10531735;28;20218;-63
2024/01/31 10:49:06;;;;;;;11.27;8.30;;;9.20;93.00;;;;;;10534234;28;20202;-64
2024/01/31 10:54:12;;;;;;;12.83;7.87;;;9.20;93.00;;;;;;10539800;28;20238;-62
2024/01/31 10:59:17;;;;;;;11.50;8.07;;;9.20;93.00;;;;;;10529725;28;20206;-63
2024/01/31 11:04:23;;;;;;;12.73;8.40;;;9.30;93.20;;;;;;10542602;28;20361;-62
2024/01/31 11:09:28;;;;;;;12.40;8.37;;;9.30;93.00;;;;;;10532837;28;20279;-62
2024/01/31 11:14:32;;;;;;;11.50;8.35;;;9.30;92.80;;;;;;10538481;28;20262;-61
2024/01/31 11:19:42;;;;;;;13.33;7.97;;;9.40;92.90;;;;;;10531964;28;20255;-62
2024/01/31 11:24:46;;;;;;;14.38;9.15;;;9.40;92.80;;;;;;10542002;28;20210;-63
2024/01/31 11:29:51;;;;;;;16.83;8.80;;;9.40;92.60;;;;;;10538205;28;20272;-63
2024/01/31 11:35:00;;;;;;;15.20;9.90;;;9.40;92.60;;;;;;10532098;28;20734;-62
2024/01/31 11:40:06;;;;;;;15.13;10.53;;;9.40;92.70;;;;;;10542615;28;20202;-63
2024/01/31 11:45:11;;;;;;;16.73;11.02;;;9.40;92.70;;;;;;10538700;28;20214;-63
2024/01/31 11:50:16;;;;;;;14.60;9.93;;;9.40;92.70;;;;;;10527606;28;20194;-64
2024/01/31 11:55:23;;;;;;;13.73;10.53;;;9.50;92.70;;;;;;10531954;28;20218;-64
2024/01/31 12:00:27;;;;;;;14.10;9.82;;;9.50;92.60;;;;;;10528448;28;20723;-63
2024/01/31 12:05:32;;;;;;;15.03;10.60;;;9.50;92.60;;;;;;10536047;28;20264;-63
2024/01/31 12:10:35;;;;;;;14.82;9.48;;;9.50;92.60;;;;;;10541215;28;20229;-63
2024/01/31 12:15:39;;;;;;;14.93;9.83;;;9.60;93.10;;;;;;10538584;28;20264;-62
2024/01/31 12:20:44;;;;;;;12.73;10.07;;;9.60;92.50;;;;;;10541161;28;20680;-63
2024/01/31 12:25:48;;;;;;;28.37;15.27;;;9.60;92.90;;;;;;10541104;28;20222;-61
2024/01/31 12:30:52;;;;;;;20.25;13.90;;;9.60;92.60;;;;;;10535818;28;20666;-64
2024/01/31 12:35:57;;;;;;;17.27;13.05;;;9.60;92.60;;;;;;10533989;28;20222;-62
2024/01/31 12:41:00;;;;;;;17.47;11.30;;;9.70;92.60;;;;;;10534450;28;20263;-62
2024/01/31 12:46:05;;;;;;;15.95;11.73;;;9.70;92.40;;;;;;10530834;28;20558;-62
2024/01/31 12:51:10;;;;;;;14.63;11.57;;;9.70;92.60;;;;;;10538533;28;20833;-63
2024/01/31 12:56:14;;;;;;;15.95;12.13;;;9.80;92.50;;;;;;10536779;28;20214;-63
2024/01/31 13:01:18;;;;;;;15.32;10.85;;;9.80;92.50;;;;;;10537186;28;20206;-64
2024/01/31 13:06:23;;;;;;;14.18;11.00;;;9.80;92.50;;;;;;10536775;28;20609;-63
2024/01/31 13:11:27;;;;;;;13.90;10.05;;;9.80;92.30;;;;;;10525056;28;20202;-64
2024/01/31 13:16:33;;;;;;;16.08;11.40;;;9.80;92.50;;;;;;10533208;28;20226;-63
2024/01/31 13:21:52;;;;;;;15.82;12.35;;;9.80;91.90;;;;;;10535959;28;20622;-63
2024/01/31 13:26:55;;;;;;;15.75;11.52;;;9.80;92.20;;;;;;10533152;28;20226;-64
2024/01/31 13:31:59;;;;;;;15.70;11.37;;;9.80;92.30;;;;;;10537378;28;20206;-63
2024/01/31 13:37:07;;;;;;;11.98;10.00;;;9.70;91.80;;;;;;10526573;22;20258;-65
2024/01/31 13:42:10;;;;;;;12.20;10.00;;;9.70;91.30;;;;;;10443998;28;20196;-63
2024/01/31 13:47:16;;;;;;;12.23;10.30;;;9.60;91.40;;;;;;10438642;28;20224;-66
2024/01/31 13:52:21;;;;;;;12.60;10.60;;;9.60;91.30;;;;;;10410472;28;20204;-66
2024/01/31 13:57:25;;;;;;;13.57;9.40;;;9.50;91.20;;;;;;10414051;28;20242;-63
2024/01/31 14:02:28;;;;;;;11.53;9.40;;;9.50;91.10;;;;;;10418646;28;20258;-64
2024/01/31 14:07:34;;;;;;;11.50;9.03;;;9.50;90.90;;;;;;10412643;28;20215;-66
2024/01/31 14:12:37;;;;;;;14.70;9.88;;;9.40;90.60;;;;;;10411821;28;20216;-65
2024/01/31 14:17:41;;;;;;;9.00;8.07;;;9.40;91.00;;;;;;10410186;28;20627;-64
2024/01/31 14:22:46;;;;;;;9.57;8.33;;;9.30;90.40;;;;;;10411687;28;20348;-63
2024/01/31 14:28:09;;;;;;;10.27;8.45;;;9.30;90.20;;;;;;10417265;28;20224;-63
2024/01/31 14:33:13;;;;;;;10.10;8.80;;;9.30;90.10;;;;;;10422787;28;20274;-61
2024/01/31 14:38:18;;;;;;;6.93;6.23;;;9.20;90.30;;;;;;10421271;28;20613;-61
2024/01/31 14:43:22;;;;;;;8.13;6.97;;;9.20;89.70;;;;;;10412547;28;20612;-61
2024/01/31 14:48:26;;;;;;;7.73;6.87;;;9.20;88.70;;;;;;10436499;28;20741;-61
2024/01/31 14:53:31;;;;;;;8.05;6.95;;;9.20;88.40;;;;;;10433758;28;20215;-62
2024/01/31 14:58:35;;;;;;;9.53;8.53;;;9.10;87.50;;;;;;10423398;28;20281;-63
2024/01/31 15:03:38;;;;;;;8.80;7.90;;;9.10;88.00;;;;;;10416738;28;20227;-62
2024/01/31 15:08:44;;;;;;;11.53;8.13;;;9.10;88.40;;;;;;10427555;28;20219;-61
2024/01/31 15:13:48;;;;;;;9.10;7.83;;;9.10;88.80;;;;;;10442248;28;20300;-63
2024/01/31 15:18:53;;;;;;;9.70;8.70;;;9.10;88.80;;;;;;10436360;28;20220;-62
2024/01/31 15:23:58;;;;;;;11.90;9.60;;;9.10;89.90;;;;;;10416653;28;20667;-62
2024/01/31 15:29:02;;;;;;;12.75;9.02;;;9.10;88.40;;;;;;10415904;28;20683;-61
2024/01/31 15:34:08;;;;;;;13.87;9.57;;;9.00;87.60;;;;;;10415426;28;20216;-61
2024/01/31 15:39:13;;;;;;;12.00;10.37;;;9.00;87.70;;;;;;10417007;28;20251;-61
2024/01/31 15:44:21;;;;;;;11.17;9.20;;;9.00;87.90;;;;;;10423258;28;20602;-62
2024/01/31 15:49:28;;;;;;;11.10;9.23;;;8.90;87.80;;;;;;10420348;28;20282;-62
2024/01/31 15:54:35;;;;;;;14.20;10.30;;;8.90;87.70;;;;;;10412363;28;20302;-63
2024/01/31 15:59:39;;;;;;;10.73;9.63;;;8.90;87.80;;;;;;10430877;28;20269;-62
2024/01/31 16:04:42;;;;;;;10.67;9.57;;;8.90;87.60;;;;;;10430601;28;20670;-63
2024/01/31 16:09:48;;;;;;;10.70;9.63;;;8.90;87.10;;;;;;10410181;28;20224;-61
2024/01/31 16:14:51;;;;;;;10.70;9.60;;;8.90;88.20;;;;;;10412511;28;20745;-63
2024/01/31 16:19:55;;;;;;;10.85;8.68;;;8.90;87.40;;;;;;10417843;28;20220;-62
2024/01/31 16:25:00;;;;;;;9.87;8.83;;;8.80;87.70;;;;;;10422250;28;20688;-62
2024/01/31 16:30:04;;;;;;;9.80;8.80;;;8.80;87.50;;;;;;10413253;28;20221;-62
2024/01/31 16:35:08;;;;;;;9.93;9.00;;;8.80;87.80;;;;;;10414340;28;20228;-62
2024/01/31 16:40:14;;;;;;;10.53;9.43;;;8.80;86.60;;;;;;10418899;28;20232;-62
2024/01/31 16:45:18;;;;;;;10.60;8.00;;;8.80;88.10;;;;;;10421563;28;20201;-61
2024/01/31 16:50:23;;;;;;;6.95;6.22;;;8.80;87.00;;;;;;10417964;28;20220;-62
2024/01/31 16:55:28;;;;;;;8.70;5.50;;;8.80;87.00;;;;;;10423085;28;20274;-62
2024/01/31 17:00:32;;;;;;;4.93;4.00;;;8.70;85.80;;;;;;10411848;28;20216;-62
2024/01/31 17:05:35;;;;;;;5.93;4.50;;;8.70;85.40;;;;;;10415535;28;20223;-62
2024/01/31 17:10:42;;;;;;;6.43;4.00;;;8.60;85.40;;;;;;10415102;28;20204;-62
2024/01/31 17:15:47;;;;;;;6.30;3.87;;;8.60;83.20;;;;;;10410691;28;20588;-62
2024/01/31 17:20:51;;;;;;;5.43;4.33;;;8.50;83.40;;;;;;10413836;28;20242;-62
2024/01/31 17:25:56;;;;;;;4.80;3.90;;;8.50;84.70;;;;;;10414772;28;20204;-62
2024/01/31 17:31:00;;;;;;;6.10;4.30;;;8.50;84.20;;;;;;10412138;28;20855;-62
2024/01/31 17:36:04;;;;;;;5.37;4.60;;;8.50;83.40;;;;;;10411631;28;20293;-62
2024/01/31 17:41:09;;;;;;;5.70;3.80;;;8.50;84.50;;;;;;10423405;28;20188;-63
2024/01/31 17:46:20;;;;;;;7.27;3.73;;;8.50;84.70;;;;;;10419282;28;20243;-63
2024/01/31 17:51:23;;;;;;;4.23;3.80;;;8.50;85.60;;;;;;10415847;28;20200;-62
2024/01/31 17:56:28;;;;;;;6.03;3.80;;;8.40;84.70;;;;;;10410828;28;20227;-62
2024/01/31 18:01:32;;;;;;;6.90;4.10;;;8.40;85.40;;;;;;10413466;28;20267;-60
2024/01/31 18:06:36;;;;;;;5.73;4.20;;;8.30;84.30;;;;;;10405814;28;20242;-61
2024/01/31 18:11:42;;;;;;;5.63;4.20;;;8.20;84.90;;;;;;10412128;28;20247;-61
2024/01/31 18:16:46;;;;;;;6.33;4.87;;;8.20;85.40;;;;;;10415546;28;20631;-62
2024/01/31 18:21:50;;;;;;;17.50;10.40;;;8.20;85.60;;;;;;10419787;28;20250;-62
2024/01/31 18:26:58;;;;;;;19.37;12.30;;;8.20;87.70;;;;;;10418215;28;20243;-61
2024/01/31 18:32:02;;;;;;;7.47;6.23;;;8.20;86.30;;;;;;10411528;28;20208;-62
2024/01/31 18:37:06;;;;;;;5.63;4.93;;;8.10;86.90;;;;;;10410729;28;20228;-61
2024/01/31 18:42:11;;;;;;;8.13;5.80;;;8.10;86.90;;;;;;10416244;28;20262;-62
2024/01/31 18:47:15;;;;;;;8.03;5.03;;;8.10;86.70;;;;;;10423944;28;20242;-61
2024/01/31 18:52:18;;;;;;;7.87;5.30;;;8.00;85.90;;;;;;10407184;28;20226;-63
2024/01/31 18:57:23;;;;;;;6.73;5.53;;;8.00;87.40;;;;;;10415617;28;20224;-62
2024/01/31 19:02:27;;;;;;;6.37;5.27;;;8.00;86.00;;;;;;10414538;28;20205;-63
2024/01/31 19:07:30;;;;;;;10.47;5.03;;;8.00;85.70;;;;;;10402224;28;20232;-63
2024/01/31 19:12:35;;;;;;;7.37;5.47;;;8.00;85.60;;;;;;10416620;28;20234;-60
2024/01/31 19:17:39;;;;;;;10.40;5.20;;;8.00;85.90;;;;;;10413268;28;20302;-63
2024/01/31 19:22:51;;;;;;;7.70;5.57;;;7.90;85.20;;;;;;10419733;28;20205;-63
2024/01/31 19:27:56;;;;;;;6.60;5.30;;;8.00;86.30;;;;;;10417988;28;20221;-63
2024/01/31 19:33:00;;;;;;;5.70;4.57;;;8.00;86.10;;;;;;10413893;28;20737;-63
2024/01/31 19:38:05;;;;;;;7.33;4.80;;;8.00;85.90;;;;;;10418205;28;20220;-63
2024/01/31 19:43:10;;;;;;;6.20;4.73;;;8.00;85.50;;;;;;10420331;28;20204;-61
2024/01/31 19:48:13;;;;;;;5.77;4.33;;;8.00;86.10;;;;;;10297462;22;20353;-58
2024/01/31 19:53:17;;;;;;;7.87;4.90;;;8.00;85.80;;;;;;10212642;28;20235;-59
2024/01/31 19:58:22;;;;;;;6.63;4.70;;;8.00;84.90;;;;;;10218246;28;20250;-59
2024/01/31 20:03:25;;;;;;;7.43;4.30;;;8.00;84.50;;;;;;10207920;28;20236;-59
2024/01/31 20:08:31;;;;;;;8.83;3.80;;;8.00;84.90;;;;;;10218885;28;20580;-59
2024/01/31 20:13:36;;;;;;;6.17;4.23;;;8.00;85.20;;;;;;10215783;28;20208;-58
2024/01/31 20:18:40;;;;;;;6.97;4.17;;;8.00;84.50;;;;;;10221053;28;20728;-58
2024/01/31 20:23:44;;;;;;;6.20;4.30;;;8.00;84.40;;;;;;10215273;28;20231;-58
2024/01/31 20:28:50;;;;;;;5.33;3.57;;;8.00;84.80;;;;;;10216192;28;20219;-59
2024/01/31 20:33:53;;;;;;;7.30;4.63;;;8.00;84.20;;;;;;10215640;28;20243;-60
2024/01/31 20:38:57;;;;;;;6.13;4.50;;;8.10;85.70;;;;;;10211491;28;20255;-62
2024/01/31 20:44:02;;;;;;;8.47;4.53;;;8.10;85.40;;;;;;10206080;28;20231;-62
2024/01/31 20:49:06;;;;;;;13.53;7.40;;;8.10;85.70;;;;;;10217709;28;20709;-67
2024/01/31 20:54:10;;;;;;;11.50;8.10;;;8.20;85.10;;;;;;10219935;28;20261;-61
2024/01/31 20:59:15;;;;;;;7.57;4.77;;;8.20;84.90;;;;;;10219814;28;20231;-62
2024/01/31 21:04:19;;;;;;;7.03;5.30;;;8.10;84.90;;;;;;10207528;28;20207;-63
2024/01/31 21:09:22;;;;;;;9.87;5.73;;;8.20;85.80;;;;;;10208126;28;20224;-62
2024/01/31 21:14:28;;;;;;;7.70;4.67;;;8.20;86.10;;;;;;10211185;28;20265;-60
2024/01/31 21:19:31;;;;;;;4.53;4.13;;;8.20;85.70;;;;;;10208749;28;21614;-59
2024/01/31 21:24:35;;;;;;;5.57;4.20;;;8.20;85.60;;;;;;10206093;28;20591;-62
2024/01/31 21:29:40;;;;;;;7.17;4.30;;;8.30;85.80;;;;;;10212850;28;20215;-61
2024/01/31 21:34:44;;;;;;;6.77;4.40;;;8.30;85.90;;;;;;10202576;28;20230;-63
2024/01/31 21:39:47;;;;;;;6.77;4.97;;;8.30;85.00;;;;;;10214525;28;20258;-65
2024/01/31 21:44:52;;;;;;;5.23;3.90;;;8.30;85.50;;;;;;10208146;28;20264;-62
2024/01/31 21:49:56;;;;;;;5.17;3.87;;;8.30;85.50;;;;;;10212774;28;20280;-64
2024/01/31 21:54:59;;;;;;;7.03;4.47;;;8.30;84.50;;;;;;10216769;28;20226;-63
2024/01/31 22:00:06;;;;;;;6.10;3.90;;;8.30;85.20;;;;;;10212631;28;20226;-63
2024/01/31 22:05:10;;;;;;;10.97;4.93;;;8.30;85.90;;;;;;10201279;28;20204;-65
2024/01/31 22:10:14;;;;;;;5.07;4.23;;;8.30;85.30;;;;;;10200630;28;20195;-64
2024/01/31 22:15:19;;;;;;;5.93;4.50;;;8.30;85.10;;;;;;10210367;28;20232;-64
2024/01/31 22:20:22;;;;;;;6.73;4.40;;;8.30;85.60;;;;;;10210498;28;20361;-64
2024/01/31 22:25:26;;;;;;;6.73;4.53;;;8.40;85.70;;;;;;10201451;29;20231;-61
2024/01/31 22:30:31;;;;;;;6.37;4.37;;;8.40;86.20;;;;;;10207775;28;20250;-60
2024/01/31 22:35:34;;;;;;;6.63;4.43;;;8.40;85.70;;;;;;10207599;28;20231;-63
2024/01/31 22:40:38;;;;;;;5.97;4.53;;;8.40;85.50;;;;;;10211374;28;20286;-64
2024/01/31 22:45:43;;;;;;;6.07;4.17;;;8.40;86.20;;;;;;10224126;28;20270;-63
2024/01/31 22:50:47;;;;;;;6.03;4.00;;;8.40;86.60;;;;;;10230935;28;20239;-63
2024/01/31 22:55:50;;;;;;;7.00;4.50;;;8.40;86.30;;;;;;10206221;28;20224;-62
2024/01/31 23:00:55;;;;;;;5.63;4.80;;;8.50;86.40;;;;;;10209013;28;20195;-62
2024/01/31 23:05:59;;;;;;;5.27;4.50;;;8.50;87.10;;;;;;10211907;28;20220;-63
2024/01/31 23:11:02;;;;;;;6.97;4.37;;;8.50;86.50;;;;;;10212147;28;20281;-63
2024/01/31 23:16:07;;;;;;;5.40;4.23;;;8.50;87.10;;;;;;10223270;28;20249;-64
2024/01/31 23:21:11;;;;;;;5.47;4.50;;;8.50;87.10;;;;;;10224477;28;20261;-64
2024/01/31 23:26:15;;;;;;;5.97;4.87;;;8.50;87.50;;;;;;10239437;28;20566;-64
2024/01/31 23:31:20;;;;;;;5.97;4.70;;;8.50;87.90;;;;;;10217826;28;20211;-65
2024/01/31 23:36:24;;;;;;;7.17;5.50;;;8.60;88.20;;;;;;10215786;28;20284;-64
2024/01/31 23:41:27;;;;;;;7.17;5.23;;;8.60;87.90;;;;;;10215989;28;20211;-64
2024/01/31 23:46:32;;;;;;;9.07;5.10;;;8.60;88.10;;;;;;10200561;28;20774;-64
2024/01/31 23:51:36;;;;;;;7.83;5.33;;;8.60;88.30;;;;;;10213134;28;20265;-64
2024/01/31 23:56:39;;;;;;;6.63;5.40;;;8.60;88.80;;;;;;10213029;28;20219;-64
